Main page
METAR-TAF:

METAR-TAF

Airports :

Agra, India

Agra Airport

latitude: 27-09-27N, longitude: 077-57-39E, elevation: 168 m

Current weather observation

The report was made 10 hours and 48 minutes ago, at 13:30 UTC
Wind 4 kt from the Northeast
Temperature 33°C
Humidity 56%
Pressure 1002 hPa
Visibility: 6000 m
Few clouds at a height of 3000 ft
Scattered clouds at a height of 25000 ft

METAR: VIAG 191330Z 05004KT 6000 FEW030 SCT250 33/23 Q1002 NOSIG

Time: 05:48 (00:18 UTC)


TAF: missing

Weather observations and forecasts of more than 4000 airports (METAR and TAF reports).

The available stations are represented by yellow and red dots on the map.

Hover mouse over dot to see the name of the station.

Then click to see weather observations and forecasts.

To change the map : click on the green buttons with a black cross to zoom in, on the green button with a dash to zoom out, or on the green arrows for adjacent maps.


METAR-TAF: